Time;durP1;ratioP1;P1;durP2;ratioP2;P2;SDS_P1;SDS_P2;PMS_P1;PMS_P2;Temp;Humidity;BMP_temperature;BMP_pressure;BME280_temperature;BME280_humidity;BME280_pressure;Samples;Min_cycle;Max_cycle;Signal;HPM_P1;HPM_P2
2023/06/26 00:01:12;;;;;;;6.90;5.50;;;23.10;99.90;;;;;;5058590;28;20482;-81
2023/06/26 00:03:39;;;;;;;5.73;4.63;;;23.00;99.90;;;;;;5049172;28;20461;-82
2023/06/26 00:06:06;;;;;;;4.93;4.40;;;23.00;99.90;;;;;;5057770;28;20956;-81
2023/06/26 00:08:34;;;;;;;7.27;5.57;;;23.00;99.90;;;;;;5059240;28;20966;-81
2023/06/26 00:11:02;;;;;;;5.23;4.73;;;23.10;99.90;;;;;;5058123;28;21297;-81
2023/06/26 00:13:29;;;;;;;5.27;4.17;;;23.10;99.90;;;;;;5044698;28;20452;-81
2023/06/26 00:15:57;;;;;;;6.80;5.30;;;23.00;99.90;;;;;;5038677;28;20460;-83
2023/06/26 00:18:24;;;;;;;5.97;4.50;;;23.00;99.90;;;;;;5045994;28;20477;-82
2023/06/26 00:20:51;;;;;;;5.30;4.50;;;23.10;99.90;;;;;;5048573;28;20551;-80
2023/06/26 00:23:19;;;;;;;8.57;6.47;;;23.10;99.90;;;;;;5058554;28;20846;-82
2023/06/26 00:25:46;;;;;;;6.27;4.67;;;23.10;99.90;;;;;;5058041;28;20442;-81
2023/06/26 00:28:15;;;;;;;7.00;4.90;;;23.00;99.90;;;;;;5046087;28;20441;-83
2023/06/26 00:30:42;;;;;;;6.33;5.10;;;23.00;99.90;;;;;;5039427;28;20477;-80
2023/06/26 00:33:08;;;;;;;5.30;4.80;;;23.10;99.90;;;;;;5043935;28;20835;-81
2023/06/26 00:35:37;;;;;;;6.03;4.93;;;23.00;99.90;;;;;;5039247;28;20448;-81
2023/06/26 00:38:03;;;;;;;6.40;5.20;;;23.00;99.90;;;;;;5038438;28;20540;-78
2023/06/26 00:40:30;;;;;;;5.33;4.50;;;23.00;99.90;;;;;;5038034;28;20511;-81
2023/06/26 00:42:57;;;;;;;6.47;4.80;;;23.00;99.90;;;;;;5037588;28;20461;-79
2023/06/26 00:45:25;;;;;;;5.40;4.90;;;23.00;99.90;;;;;;5037286;28;20445;-80
2023/06/26 00:47:52;;;;;;;5.20;4.43;;;22.90;99.90;;;;;;5056118;28;20783;-79
2023/06/26 00:50:19;;;;;;;14.50;5.07;;;22.90;99.90;;;;;;5054787;28;20472;-80
2023/06/26 00:52:47;;;;;;;6.40;4.60;;;22.90;99.90;;;;;;5058059;28;20448;-79
2023/06/26 00:55:14;;;;;;;6.30;5.13;;;22.90;99.90;;;;;;5056865;28;20448;-80
2023/06/26 00:57:45;;;;;;;5.17;4.27;;;22.90;99.90;;;;;;5056794;28;20478;-79
2023/06/26 01:00:14;;;;;;;7.40;4.80;;;22.90;99.90;;;;;;5050394;28;20479;-80
2023/06/26 01:02:42;;;;;;;8.03;4.33;;;22.80;99.90;;;;;;5039325;28;20932;-80
2023/06/26 01:05:12;;;;;;;5.37;4.63;;;22.80;99.90;;;;;;5056820;28;20462;-80
2023/06/26 01:07:40;;;;;;;7.13;4.53;;;22.80;99.90;;;;;;5055209;28;20456;-78
2023/06/26 01:10:08;;;;;;;6.30;4.80;;;22.80;99.90;;;;;;5055236;28;20944;-79
2023/06/26 01:12:35;;;;;;;6.10;4.50;;;22.70;99.90;;;;;;5057049;28;20460;-80
2023/06/26 01:15:02;;;;;;;8.10;4.73;;;22.70;1.00;;;;;;5043208;28;20459;-82
2023/06/26 01:17:31;;;;;;;6.57;5.23;;;22.70;1.00;;;;;;5052726;28;20452;-80
2023/06/26 01:20:00;;;;;;;5.83;5.23;;;22.60;99.90;;;;;;5056670;28;20900;-80
2023/06/26 01:22:34;;;;;;;5.60;4.63;;;22.60;99.90;;;;;;5051072;28;20453;-79
2023/06/26 01:25:17;;;;;;;6.40;4.73;;;22.60;1.00;;;;;;5036916;28;20458;-80
2023/06/26 01:27:47;;;;;;;5.03;4.20;;;22.60;99.90;;;;;;5037883;28;20472;-79
2023/06/26 01:30:16;;;;;;;5.80;5.00;;;22.60;1.00;;;;;;5036818;28;20987;-80
2023/06/26 01:32:44;;;;;;;5.50;4.33;;;22.60;99.90;;;;;;5056212;28;20550;-81
2023/06/26 01:35:13;;;;;;;6.57;5.10;;;22.60;99.90;;;;;;5041458;28;20540;-81
2023/06/26 01:37:39;;;;;;;6.47;5.77;;;22.50;1.00;;;;;;5039151;28;20460;-81
2023/06/26 01:40:07;;;;;;;6.17;5.10;;;22.50;99.90;;;;;;5056920;28;20480;-82
2023/06/26 01:42:35;;;;;;;8.10;4.70;;;22.50;99.90;;;;;;5056834;28;20463;-82
2023/06/26 01:45:10;;;;;;;6.67;5.20;;;22.50;99.90;;;;;;5058183;28;20460;-83
2023/06/26 01:47:40;;;;;;;5.73;4.73;;;22.40;1.00;;;;;;5056626;28;20463;-82
2023/06/26 01:50:12;;;;;;;5.43;4.67;;;22.40;1.00;;;;;;5037827;28;20829;-83
2023/06/26 01:52:42;;;;;;;6.03;5.20;;;22.40;99.90;;;;;;5037166;28;20811;-82
2023/06/26 01:55:17;;;;;;;5.97;5.00;;;22.40;99.90;;;;;;5041536;28;20454;-81
2023/06/26 01:57:46;;;;;;;5.73;4.90;;;22.30;1.00;;;;;;5055253;28;20455;-79
2023/06/26 02:00:17;;;;;;;5.03;4.40;;;22.20;1.00;;;;;;5055147;28;20928;-80
2023/06/26 02:02:44;;;;;;;5.70;4.37;;;22.20;44.60;;;;;;5058798;28;20462;-81
2023/06/26 02:05:12;;;;;;;6.00;5.17;;;22.20;99.90;;;;;;5057999;28;20543;-79
2023/06/26 02:07:39;;;;;;;7.53;5.50;;;22.20;99.90;;;;;;5058797;28;20451;-78
2023/06/26 02:10:07;;;;;;;5.57;4.30;;;22.20;99.90;;;;;;5058741;28;20452;-79
2023/06/26 02:12:34;;;;;;;6.03;4.67;;;22.20;99.90;;;;;;5058158;28;20972;-80
2023/06/26 02:15:01;;;;;;;6.70;5.17;;;22.10;99.90;;;;;;5060512;28;20456;-81
2023/06/26 02:17:29;;;;;;;7.40;5.60;;;22.10;99.90;;;;;;5059092;28;20453;-80
2023/06/26 02:19:56;;;;;;;8.40;4.83;;;22.10;99.90;;;;;;5058963;28;21090;-80
2023/06/26 02:22:23;;;;;;;5.40;4.33;;;22.10;99.90;;;;;;5058587;28;20482;-82
2023/06/26 02:24:50;;;;;;;5.80;5.20;;;22.10;1.00;;;;;;5058374;28;20838;-81
2023/06/26 02:27:16;;;;;;;8.43;5.23;;;22.10;1.00;;;;;;5058138;28;20458;-80
2023/06/26 02:29:43;;;;;;;10.10;5.70;;;22.10;68.90;;;;;;5058591;28;20455;-83
2023/06/26 02:32:10;;;;;;;7.07;5.13;;;22.10;99.90;;;;;;5058568;28;20479;-81
2023/06/26 02:34:38;;;;;;;6.00;4.90;;;22.10;99.90;;;;;;5058652;28;20550;-82
2023/06/26 02:37:07;;;;;;;6.37;4.77;;;22.10;99.90;;;;;;5058795;28;20461;-81
2023/06/26 02:39:34;;;;;;;4.57;4.13;;;22.00;99.90;;;;;;5059285;28;20499;-81
2023/06/26 02:42:00;;;;;;;5.40;4.90;;;22.00;99.90;;;;;;5058824;28;20478;-82
2023/06/26 02:44:27;;;;;;;4.87;4.37;;;22.00;1.00;;;;;;5058799;28;20452;-79
2023/06/26 02:46:55;;;;;;;6.23;4.50;;;22.00;99.90;;;;;;5058412;28;20801;-81
2023/06/26 02:49:21;;;;;;;6.20;5.03;;;22.00;1.00;;;;;;5058075;28;20981;-80
2023/06/26 02:51:49;;;;;;;5.80;5.17;;;21.90;99.90;;;;;;5057325;28;20468;-81
2023/06/26 02:54:16;;;;;;;6.50;5.40;;;21.90;99.90;;;;;;5058279;28;20447;-81
2023/06/26 02:56:43;;;;;;;5.60;4.97;;;21.90;1.00;;;;;;5057828;28;20546;-80
2023/06/26 02:59:10;;;;;;;5.80;5.13;;;21.90;1.00;;;;;;5057706;28;20448;-80
2023/06/26 03:01:37;;;;;;;5.80;5.20;;;21.90;99.90;;;;;;5057085;28;20474;-81
2023/06/26 03:04:04;;;;;;;5.97;4.83;;;21.90;1.00;;;;;;5058001;28;20478;-81
2023/06/26 03:06:31;;;;;;;6.90;4.40;;;21.80;99.90;;;;;;5058852;28;20456;-82
2023/06/26 03:08:59;;;;;;;6.30;5.30;;;21.90;42.20;;;;;;5058579;28;20967;-83
2023/06/26 03:11:26;;;;;;;5.00;4.50;;;21.80;99.90;;;;;;5057981;28;20472;-81
2023/06/26 03:13:53;;;;;;;7.20;4.80;;;21.80;99.90;;;;;;5057875;28;20452;-80
2023/06/26 03:16:19;;;;;;;5.93;5.03;;;21.80;1.00;;;;;;5057403;28;20444;-81
2023/06/26 03:18:46;;;;;;;5.80;5.20;;;21.70;1.00;;;;;;5057738;28;20452;-79
2023/06/26 03:21:13;;;;;;;10.37;5.97;;;21.70;1.00;;;;;;5057409;28;20491;-82
2023/06/26 03:23:40;;;;;;;6.50;5.20;;;21.70;1.00;;;;;;5057762;28;20452;-80
2023/06/26 03:26:08;;;;;;;6.57;5.97;;;21.70;99.90;;;;;;5056977;28;20448;-81
2023/06/26 03:28:35;;;;;;;9.00;5.80;;;21.70;1.00;;;;;;5055878;28;20462;-82
2023/06/26 03:31:02;;;;;;;7.50;5.77;;;21.70;99.90;;;;;;5051591;28;20489;-82
2023/06/26 03:33:28;;;;;;;7.90;5.50;;;21.70;99.90;;;;;;5045459;28;20488;-82
2023/06/26 03:35:55;;;;;;;5.83;5.20;;;21.70;1.00;;;;;;5037564;28;20941;-82
2023/06/26 03:38:23;;;;;;;6.27;5.50;;;21.50;1.00;;;;;;5038380;28;20457;-83
2023/06/26 03:40:50;;;;;;;7.00;6.13;;;21.50;99.90;;;;;;5041009;28;20574;-81
2023/06/26 03:43:19;;;;;;;6.67;5.33;;;21.50;1.00;;;;;;5043895;28;20451;-80
2023/06/26 03:45:46;;;;;;;6.80;5.90;;;21.50;99.90;;;;;;5036291;28;20462;-82
2023/06/26 03:48:13;;;;;;;5.83;5.03;;;21.50;99.90;;;;;;5055077;28;20460;-82
2023/06/26 03:50:39;;;;;;;5.10;4.53;;;21.50;99.90;;;;;;5052719;28;20475;-79
2023/06/26 03:53:06;;;;;;;5.83;5.23;;;21.60;99.90;;;;;;5048180;28;20451;-80
2023/06/26 03:55:34;;;;;;;6.50;4.70;;;21.60;99.90;;;;;;5046471;28;20456;-80
2023/06/26 03:58:01;;;;;;;6.40;5.10;;;21.70;99.90;;;;;;5044327;28;20934;-82
2023/06/26 04:00:29;;;;;;;5.00;4.20;;;21.60;1.00;;;;;;5037208;28;20492;-80
2023/06/26 04:02:55;;;;;;;9.47;5.60;;;21.80;99.90;;;;;;5047255;28;20448;-81
2023/06/26 04:05:22;;;;;;;7.10;5.90;;;21.90;99.90;;;;;;5040205;28;20555;-84
2023/06/26 04:07:51;;;;;;;6.40;5.20;;;21.90;99.90;;;;;;5052652;28;20456;-82
2023/06/26 04:10:18;;;;;;;9.10;5.47;;;22.00;99.90;;;;;;5049104;28;20444;-81
2023/06/26 04:12:45;;;;;;;8.40;5.70;;;22.10;99.90;;;;;;5048642;28;20463;-80
2023/06/26 04:15:11;;;;;;;7.77;6.07;;;22.20;99.90;;;;;;5043920;28;20535;-83
2023/06/26 04:17:40;;;;;;;8.00;5.20;;;22.30;99.90;;;;;;5057029;28;20456;-80
2023/06/26 04:20:08;;;;;;;8.07;5.60;;;22.30;99.90;;;;;;5035615;28;20481;-82
2023/06/26 04:22:35;;;;;;;6.60;5.90;;;22.40;1.00;;;;;;5039722;28;20456;-82
2023/06/26 04:25:05;;;;;;;7.60;5.53;;;22.40;1.00;;;;;;5048515;28;20456;-82
2023/06/26 04:27:31;;;;;;;8.00;5.30;;;22.50;99.90;;;;;;5059984;28;20452;-82
2023/06/26 04:29:59;;;;;;;11.93;5.50;;;22.50;99.90;;;;;;5059404;28;20444;-83
2023/06/26 04:32:26;;;;;;;7.30;5.47;;;22.50;99.90;;;;;;5061414;28;20462;-82
2023/06/26 04:34:54;;;;;;;6.20;5.57;;;22.50;99.90;;;;;;5060785;28;20518;-84
2023/06/26 04:37:20;;;;;;;6.50;5.27;;;22.60;1.00;;;;;;5059417;28;20796;-83
2023/06/26 04:39:47;;;;;;;7.90;4.87;;;22.50;99.90;;;;;;5057665;28;20487;-82
2023/06/26 04:42:14;;;;;;;6.53;5.40;;;22.50;99.90;;;;;;5056537;28;20467;-83
2023/06/26 04:44:41;;;;;;;6.80;5.23;;;22.50;99.90;;;;;;5042556;28;20456;-83
2023/06/26 04:47:08;;;;;;;7.30;5.57;;;22.50;99.90;;;;;;5041550;28;20509;-81
2023/06/26 04:49:35;;;;;;;6.07;4.83;;;22.60;99.90;;;;;;5056610;28;20809;-83
2023/06/26 04:52:04;;;;;;;7.33;5.53;;;22.60;99.90;;;;;;5056352;28;20555;-82
2023/06/26 04:54:31;;;;;;;6.03;4.90;;;22.70;1.00;;;;;;5056353;28;20463;-82
2023/06/26 04:56:59;;;;;;;7.73;5.10;;;22.70;99.90;;;;;;5056101;28;20539;-85
2023/06/26 04:59:26;;;;;;;6.20;5.30;;;22.60;99.90;;;;;;5050443;28;20484;-82
2023/06/26 05:01:53;;;;;;;6.43;5.10;;;22.60;99.90;;;;;;5042865;28;20483;-82
2023/06/26 05:04:19;;;;;;;7.10;5.10;;;22.70;99.90;;;;;;5052109;28;20458;-83
2023/06/26 05:06:46;;;;;;;8.23;5.70;;;22.70;99.90;;;;;;5055962;28;20877;-84
2023/06/26 05:09:15;;;;;;;9.57;5.20;;;22.70;99.90;;;;;;5033374;28;20456;-80
2023/06/26 05:11:41;;;;;;;6.20;4.83;;;22.80;1.00;;;;;;5038141;28;20560;-82
2023/06/26 05:14:09;;;;;;;8.60;6.10;;;22.80;87.10;;;;;;5034863;28;20445;-82
2023/06/26 05:16:36;;;;;;;6.40;4.93;;;22.80;99.90;;;;;;5048550;28;20514;-81
2023/06/26 05:19:03;;;;;;;5.90;4.73;;;22.80;99.90;;;;;;5026215;28;20473;-81
2023/06/26 05:21:30;;;;;;;9.40;5.27;;;22.70;41.50;;;;;;5020522;28;20543;-82
2023/06/26 05:23:58;;;;;;;8.30;5.30;;;22.80;99.90;;;;;;5037978;28;20480;-82
2023/06/26 05:26:27;;;;;;;7.20;4.90;;;22.90;99.90;;;;;;5055884;28;20974;-82
2023/06/26 05:28:55;;;;;;;10.30;5.40;;;22.80;99.90;;;;;;5052400;28;20452;-81
2023/06/26 05:31:22;;;;;;;7.10;5.40;;;22.80;99.90;;;;;;5055513;28;20574;-82
2023/06/26 05:33:51;;;;;;;6.20;4.70;;;22.80;99.90;;;;;;5038200;28;20451;-81
2023/06/26 05:36:21;;;;;;;8.20;5.20;;;22.90;99.90;;;;;;5035651;28;20965;-84
2023/06/26 05:38:48;;;;;;;8.53;5.37;;;22.90;99.90;;;;;;5057197;28;20455;-81
2023/06/26 05:41:16;;;;;;;10.10;4.80;;;22.90;24.40;;;;;;5059149;28;20502;-80
2023/06/26 05:43:44;;;;;;;7.20;5.20;;;22.90;1.00;;;;;;5057395;28;20458;-81
2023/06/26 05:46:10;;;;;;;7.90;4.83;;;22.90;99.90;;;;;;5052084;28;20451;-82
2023/06/26 05:48:37;;;;;;;7.13;5.40;;;22.90;1.00;;;;;;5036488;28;21016;-82
2023/06/26 05:51:05;;;;;;;9.50;6.07;;;23.00;99.90;;;;;;5046681;28;20468;-81
2023/06/26 05:53:32;;;;;;;8.27;5.00;;;23.20;99.90;;;;;;5042804;28;20454;-81
2023/06/26 05:55:59;;;;;;;11.60;5.80;;;23.30;99.90;;;;;;5053851;28;20452;-81
2023/06/26 05:58:28;;;;;;;7.87;5.80;;;23.30;99.90;;;;;;5057394;28;20917;-83
2023/06/26 06:00:56;;;;;;;6.50;5.07;;;23.30;99.90;;;;;;5038849;28;20484;-80
2023/06/26 06:03:23;;;;;;;8.77;5.60;;;23.40;99.90;;;;;;5038804;28;20461;-79
2023/06/26 06:05:50;;;;;;;9.00;5.67;;;23.30;99.90;;;;;;5046532;28;20452;-79
2023/06/26 06:08:17;;;;;;;11.53;6.60;;;23.30;99.90;;;;;;5055252;28;20462;-79
2023/06/26 06:10:44;;;;;;;10.60;5.87;;;23.20;99.90;;;;;;5055114;28;20464;-79
2023/06/26 06:13:11;;;;;;;8.83;5.50;;;23.10;99.90;;;;;;5055181;28;20447;-80
2023/06/26 06:15:38;;;;;;;8.00;5.40;;;23.00;1.00;;;;;;5040584;28;20540;-79
2023/06/26 06:18:06;;;;;;;8.60;5.57;;;23.00;99.90;;;;;;5034717;28;20491;-80
2023/06/26 06:20:33;;;;;;;7.40;5.60;;;23.00;99.90;;;;;;5036576;28;20484;-80
2023/06/26 06:23:00;;;;;;;9.40;4.80;;;23.00;99.90;;;;;;5054467;28;20448;-79
2023/06/26 06:25:26;;;;;;;8.00;6.03;;;23.00;1.00;;;;;;5039170;28;20449;-80
2023/06/26 06:27:53;;;;;;;9.40;5.80;;;23.00;1.00;;;;;;5037510;28;21019;-81
2023/06/26 06:30:20;;;;;;;9.33;5.67;;;23.10;99.90;;;;;;5035728;28;20482;-80
2023/06/26 06:32:50;;;;;;;7.63;5.30;;;23.20;99.90;;;;;;5045271;28;20452;-80
2023/06/26 06:35:18;;;;;;;6.33;4.83;;;23.20;99.90;;;;;;5038729;28;20467;-79
2023/06/26 06:37:45;;;;;;;8.20;5.50;;;23.40;99.90;;;;;;5035046;28;20448;-78
2023/06/26 06:40:13;;;;;;;6.23;4.70;;;23.40;99.90;;;;;;5033306;28;20884;-80
2023/06/26 06:42:40;;;;;;;11.03;5.43;;;23.50;1.00;;;;;;5034349;28;20453;-79
2023/06/26 06:45:07;;;;;;;8.80;5.37;;;23.40;99.90;;;;;;5043456;28;20456;-78
2023/06/26 06:47:34;;;;;;;16.43;5.53;;;23.50;1.00;;;;;;5037038;28;20490;-80
2023/06/26 06:50:07;;;;;;;10.00;5.53;;;23.40;1.00;;;;;;5039205;28;20559;-80
2023/06/26 06:52:36;;;;;;;7.93;5.60;;;23.20;1.00;;;;;;5052440;28;20551;-81
2023/06/26 06:55:05;;;;;;;6.83;5.20;;;23.10;94.60;;;;;;5044353;28;20444;-77
2023/06/26 06:57:35;;;;;;;5.50;4.83;;;22.90;99.90;;;;;;5039948;28;20510;-81
2023/06/26 07:00:04;;;;;;;7.50;4.83;;;23.00;1.00;;;;;;5054839;28;20531;-79
2023/06/26 07:02:31;;;;;;;6.90;5.20;;;22.90;1.00;;;;;;5051235;28;20906;-83
2023/06/26 07:04:58;;;;;;;7.87;5.30;;;22.70;4.90;;;;;;5053200;28;20547;-81
2023/06/26 07:07:29;;;;;;;9.13;5.90;;;22.60;1.00;;;;;;5058269;28;20463;-80
2023/06/26 07:09:58;;;;;;;6.53;5.03;;;22.70;1.00;;;;;;5052128;28;20449;-81
2023/06/26 07:12:25;;;;;;;14.00;5.90;;;22.70;6.40;;;;;;5066670;28;20511;-83
2023/06/26 07:14:52;;;;;;;7.57;4.80;;;22.70;1.00;;;;;;5065577;28;20453;-81
2023/06/26 07:17:18;;;;;;;6.40;4.60;;;22.80;99.90;;;;;;5074274;28;20491;-82
2023/06/26 07:19:46;;;;;;;7.93;5.27;;;22.80;1.00;;;;;;5069593;28;20487;-82
2023/06/26 07:22:13;;;;;;;13.60;6.10;;;22.80;99.90;;;;;;5060374;28;20485;-80
2023/06/26 07:24:40;;;;;;;8.20;5.10;;;23.00;99.90;;;;;;5054182;28;20444;-81
2023/06/26 07:27:08;;;;;;;11.40;5.33;;;23.20;1.00;;;;;;5055977;28;20453;-79
2023/06/26 07:29:35;;;;;;;5.20;4.13;;;23.20;1.00;;;;;;5059402;28;20456;-81
2023/06/26 07:32:01;;;;;;;13.73;5.20;;;23.30;1.00;;;;;;5055618;28;20928;-80
2023/06/26 07:34:28;;;;;;;10.37;5.70;;;23.40;1.00;;;;;;5051381;28;20829;-80
2023/06/26 07:36:55;;;;;;;9.63;5.53;;;23.40;1.00;;;;;;5051276;28;20550;-81
2023/06/26 07:39:22;;;;;;;10.17;5.83;;;23.30;1.00;;;;;;5042797;28;20547;-81
2023/06/26 07:41:48;;;;;;;12.10;5.33;;;23.30;99.90;;;;;;5034150;28;20499;-80
2023/06/26 07:44:17;;;;;;;9.03;5.77;;;23.40;99.90;;;;;;5047923;28;20516;-79
2023/06/26 07:46:44;;;;;;;10.07;5.50;;;23.30;1.00;;;;;;5033929;28;20449;-79
2023/06/26 07:49:11;;;;;;;8.53;5.43;;;23.50;99.90;;;;;;5033958;28;20503;-79
2023/06/26 07:51:38;;;;;;;7.97;4.50;;;23.50;99.90;;;;;;5033833;28;20484;-80
2023/06/26 07:54:05;;;;;;;12.57;6.20;;;23.50;1.00;;;;;;5051471;28;20439;-81
2023/06/26 07:56:32;;;;;;;7.63;5.30;;;23.50;1.00;;;;;;5054153;28;20452;-79
2023/06/26 07:59:00;;;;;;;9.67;6.10;;;23.70;99.90;;;;;;5054436;28;20473;-80
2023/06/26 08:01:28;;;;;;;7.93;4.60;;;23.70;1.00;;;;;;5052993;28;20499;-80
2023/06/26 08:03:55;;;;;;;10.20;5.53;;;23.80;1.00;;;;;;5047209;28;20462;-80
2023/06/26 08:06:22;;;;;;;8.40;5.63;;;23.70;1.00;;;;;;5042168;28;20483;-81
2023/06/26 08:08:48;;;;;;;11.70;6.50;;;23.70;25.00;;;;;;5034207;28;20449;-82
2023/06/26 08:11:15;;;;;;;10.20;6.10;;;23.90;1.00;;;;;;5042813;28;20555;-79
2023/06/26 08:13:42;;;;;;;10.80;6.27;;;23.90;1.00;;;;;;5042828;28;20467;-81
2023/06/26 08:16:09;;;;;;;8.63;6.90;;;24.00;99.90;;;;;;5050838;28;20448;-81
2023/06/26 08:18:37;;;;;;;10.37;6.43;;;24.00;1.00;;;;;;5053906;28;20448;-81
2023/06/26 08:21:04;;;;;;;8.37;6.23;;;24.00;99.90;;;;;;5045917;28;20567;-80
2023/06/26 08:23:31;;;;;;;14.50;7.00;;;23.90;1.00;;;;;;5053733;28;20519;-80
2023/06/26 08:25:58;;;;;;;9.67;6.83;;;24.00;1.00;;;;;;5046313;28;20513;-80
2023/06/26 08:28:25;;;;;;;8.73;6.87;;;24.00;1.00;;;;;;5046521;28;20459;-81
2023/06/26 08:30:52;;;;;;;12.23;7.07;;;24.00;99.90;;;;;;5043663;28;20483;-81
2023/06/26 08:33:19;;;;;;;11.63;8.57;;;24.10;99.90;;;;;;5039072;28;20457;-81
2023/06/26 08:35:47;;;;;;;10.70;9.20;;;24.20;1.00;;;;;;5041098;28;20448;-82
2023/06/26 08:38:14;;;;;;;13.47;9.73;;;24.40;99.90;;;;;;5037809;28;20452;-80
2023/06/26 08:40:41;;;;;;;14.63;10.33;;;24.40;99.90;;;;;;5032968;28;20468;-81
2023/06/26 08:43:08;;;;;;;11.97;10.70;;;24.50;99.90;;;;;;5042581;28;20456;-82
2023/06/26 08:45:35;;;;;;;10.60;9.07;;;24.50;99.90;;;;;;5046075;28;20544;-83
2023/06/26 08:48:03;;;;;;;14.87;11.97;;;24.50;99.90;;;;;;5039302;28;20453;-83
2023/06/26 08:50:34;;;;;;;13.37;11.90;;;24.60;99.90;;;;;;5037252;28;20464;-82
2023/06/26 08:53:09;;;;;;;15.83;13.60;;;24.60;99.90;;;;;;5033826;28;20448;-82
2023/06/26 08:55:39;;;;;;;14.17;12.77;;;24.50;99.90;;;;;;5037962;28;20492;-81
2023/06/26 08:58:06;;;;;;;13.93;11.43;;;24.50;99.90;;;;;;5033629;28;20974;-80
2023/06/26 09:00:33;;;;;;;14.43;12.30;;;24.30;99.90;;;;;;5046617;28;20476;-79
2023/06/26 09:03:00;;;;;;;13.10;10.33;;;24.00;99.90;;;;;;5049777;28;20873;-79
2023/06/26 09:05:28;;;;;;;12.73;9.47;;;24.00;99.90;;;;;;5044728;28;20455;-77
2023/06/26 09:07:55;;;;;;;13.43;9.27;;;24.30;99.90;;;;;;5035812;28;20448;-79
2023/06/26 09:10:23;;;;;;;11.83;9.53;;;24.70;99.90;;;;;;5040955;28;20476;-80
2023/06/26 09:12:50;;;;;;;12.07;7.00;;;25.10;99.90;;;;;;5036166;28;20444;-78
2023/06/26 09:15:20;;;;;;;10.60;7.10;;;25.00;99.90;;;;;;5044784;28;20460;-79
2023/06/26 09:17:48;;;;;;;11.50;6.77;;;25.00;82.70;;;;;;5047570;28;20452;-81
2023/06/26 09:20:15;;;;;;;9.70;5.20;;;24.90;71.60;;;;;;5039365;28;20465;-81
2023/06/26 09:22:44;;;;;;;7.60;5.20;;;24.60;99.90;;;;;;5039807;28;20485;-79
2023/06/26 09:25:13;;;;;;;6.60;4.17;;;24.40;68.20;;;;;;5038729;28;20490;-81
2023/06/26 09:27:44;;;;;;;5.00;4.13;;;24.60;99.90;;;;;;5037654;28;20456;-77
2023/06/26 09:30:12;;;;;;;9.27;4.60;;;24.80;28.10;;;;;;5034412;28;20459;-83
2023/06/26 09:32:39;;;;;;;12.53;6.40;;;25.20;1.00;;;;;;5047078;28;20575;-80
2023/06/26 09:35:06;;;;;;;6.60;5.30;;;25.10;1.00;;;;;;5051511;28;20884;-78
2023/06/26 09:37:34;;;;;;;8.43;4.77;;;24.90;80.50;;;;;;5039142;28;20471;-82
2023/06/26 09:40:02;;;;;;;10.83;5.33;;;24.90;99.90;;;;;;5042458;28;20907;-79
2023/06/26 09:42:30;;;;;;;13.33;5.60;;;25.00;8.10;;;;;;5041540;28;20534;-82
2023/06/26 09:44:59;;;;;;;6.77;4.17;;;25.00;1.00;;;;;;5046791;28;20543;-80
2023/06/26 09:47:25;;;;;;;8.70;5.27;;;25.00;1.00;;;;;;5041340;28;20591;-80
2023/06/26 09:49:54;;;;;;;4.60;3.70;;;24.90;1.00;;;;;;5050526;28;20447;-80
2023/06/26 09:52:21;;;;;;;10.27;4.70;;;24.90;1.00;;;;;;5049126;28;20474;-79
2023/06/26 09:54:48;;;;;;;6.93;4.20;;;24.90;1.00;;;;;;5051878;28;20440;-80
2023/06/26 09:57:17;;;;;;;8.47;4.53;;;24.90;1.00;;;;;;5041842;28;20452;-80
2023/06/26 09:59:45;;;;;;;12.73;4.67;;;25.50;1.00;;;;;;5039469;28;20468;-82
2023/06/26 10:02:13;;;;;;;7.83;4.80;;;26.30;1.00;;;;;;5039205;28;20475;-80
2023/06/26 10:04:43;;;;;;;7.97;3.60;;;26.80;1.00;;;;;;5048914;28;20463;-81
2023/06/26 10:07:14;;;;;;;8.73;4.57;;;27.10;1.00;;;;;;5038452;28;20462;-80
2023/06/26 10:09:43;;;;;;;6.73;4.60;;;26.70;1.00;;;;;;5045231;28;20479;-81
2023/06/26 10:12:17;;;;;;;9.03;5.20;;;26.60;1.00;;;;;;5039242;28;20469;-81
2023/06/26 10:14:44;;;;;;;8.50;4.10;;;26.70;1.00;;;;;;5038358;28;20449;-81
2023/06/26 10:17:16;;;;;;;6.57;3.70;;;26.80;1.00;;;;;;5034654;28;20463;-82
2023/06/26 10:19:46;;;;;;;7.47;4.43;;;27.20;1.00;;;;;;5039353;28;20452;-82
2023/06/26 10:22:15;;;;;;;7.10;3.80;;;27.50;1.00;;;;;;5050868;28;20561;-81
2023/06/26 10:24:43;;;;;;;5.73;3.53;;;27.30;1.00;;;;;;5035797;28;20453;-82
2023/06/26 10:27:20;;;;;;;6.43;3.10;;;26.80;1.00;;;;;;5039793;28;20457;-82
2023/06/26 10:29:50;;;;;;;5.13;2.90;;;26.40;99.90;;;;;;5048863;28;20484;-82
2023/06/26 10:32:19;;;;;;;4.27;2.60;;;26.20;99.90;;;;;;5042721;28;21050;-81
2023/06/26 10:34:46;;;;;;;4.17;2.90;;;26.20;99.90;;;;;;5037371;28;20452;-83
2023/06/26 10:37:13;;;;;;;3.90;2.70;;;25.90;99.90;;;;;;5036470;28;20479;-81
2023/06/26 10:39:50;;;;;;;4.33;2.70;;;25.50;99.90;;;;;;5049535;28;20456;-84
2023/06/26 10:42:18;;;;;;;8.23;2.80;;;25.30;99.90;;;;;;5042339;28;20545;-80
2023/06/26 10:44:47;;;;;;;5.37;2.60;;;24.90;99.90;;;;;;5038557;28;20500;-80
2023/06/26 10:47:32;;;;;;;6.50;3.57;;;24.80;99.90;;;;;;5046870;28;20956;-83
2023/06/26 10:50:18;;;;;;;6.30;3.57;;;25.10;1.00;;;;;;5042704;28;20456;-81
2023/06/26 10:52:45;;;;;;;8.00;3.63;;;26.00;1.00;;;;;;5037893;28;20449;-82
2023/06/26 10:55:11;;;;;;;5.83;3.30;;;26.80;1.00;;;;;;5040298;28;20830;-81
2023/06/26 10:57:39;;;;;;;8.63;3.77;;;27.40;1.00;;;;;;5048739;28;21147;-81
2023/06/26 11:00:14;;;;;;;7.13;3.30;;;27.80;99.90;;;;;;5048920;28;20464;-82
2023/06/26 11:02:51;;;;;;;9.47;2.80;;;28.30;99.90;;;;;;5037452;28;20479;-81
2023/06/26 11:05:26;;;;;;;6.53;3.20;;;28.50;99.90;;;;;;5055316;28;20457;-80
2023/06/26 11:08:07;;;;;;;7.47;2.97;;;28.60;99.90;;;;;;5043944;28;20445;-81
2023/06/26 11:10:51;;;;;;;8.23;3.17;;;29.10;99.90;;;;;;5039993;28;21056;-80
2023/06/26 11:13:20;;;;;;;5.10;2.50;;;29.20;99.90;;;;;;5036398;28;20999;-81
2023/06/26 11:15:46;;;;;;;4.73;2.23;;;28.90;99.90;;;;;;5050636;28;20543;-79
2023/06/26 11:18:15;;;;;;;8.13;3.10;;;28.30;99.90;;;;;;5055617;28;20880;-81
2023/06/26 11:20:42;;;;;;;7.10;3.33;;;27.70;99.90;;;;;;5046979;28;20525;-82
2023/06/26 11:23:10;;;;;;;7.63;3.30;;;27.00;99.90;;;;;;5043852;28;20492;-80
2023/06/26 11:25:37;;;;;;;7.10;3.17;;;26.40;99.90;;;;;;5044167;28;20971;-81
2023/06/26 11:28:04;;;;;;;10.07;3.00;;;26.20;99.90;;;;;;5056114;28;20997;-79
2023/06/26 11:30:32;;;;;;;6.80;2.73;;;26.00;99.90;;;;;;5050650;28;20488;-81
2023/06/26 11:33:10;;;;;;;6.77;3.10;;;26.00;99.90;;;;;;5037467;28;20450;-80
2023/06/26 11:35:38;;;;;;;4.63;2.90;;;26.30;99.90;;;;;;5049486;28;20823;-80
2023/06/26 11:38:05;;;;;;;6.30;2.20;;;27.00;99.90;;;;;;5049401;28;20835;-81
2023/06/26 11:40:34;;;;;;;3.87;2.03;;;27.60;99.90;;;;;;5037063;28;20511;-80
2023/06/26 11:43:03;;;;;;;6.33;2.50;;;27.70;99.90;;;;;;5047340;28;20492;-83
2023/06/26 11:45:30;;;;;;;4.63;2.20;;;28.10;99.90;;;;;;5035310;28;20472;-80
2023/06/26 11:47:58;;;;;;;4.03;2.03;;;27.80;99.90;;;;;;5046003;28;20920;-82
2023/06/26 11:50:26;;;;;;;6.13;2.07;;;27.80;99.90;;;;;;5054656;28;20472;-80
2023/06/26 11:52:58;;;;;;;3.33;1.80;;;28.30;99.90;;;;;;5055674;28;20543;-82
2023/06/26 11:55:26;;;;;;;5.73;1.97;;;28.80;99.90;;;;;;5054949;28;20478;-81
2023/06/26 11:57:55;;;;;;;2.87;1.60;;;29.00;99.90;;;;;;5048178;28;20459;-83
2023/06/26 12:00:23;;;;;;;6.53;1.60;;;29.20;99.90;;;;;;5043252;28;20503;-82
2023/06/26 12:02:51;;;;;;;5.27;2.07;;;28.90;99.90;;;;;;5052763;28;20490;-82
2023/06/26 12:05:18;;;;;;;3.80;1.70;;;28.80;99.90;;;;;;5045543;28;20456;-81
2023/06/26 12:07:47;;;;;;;5.17;1.97;;;28.30;99.90;;;;;;5042011;28;20460;-81
2023/06/26 12:10:16;;;;;;;4.23;1.97;;;27.80;99.90;;;;;;5040395;28;20519;-81
2023/06/26 12:12:45;;;;;;;4.93;1.43;;;27.70;99.90;;;;;;5052267;28;20457;-81
2023/06/26 12:15:17;;;;;;;2.83;1.43;;;27.10;99.90;;;;;;5044272;28;20493;-79
2023/06/26 12:17:44;;;;;;;3.43;1.33;;;26.90;99.90;;;;;;5034798;28;20452;-81
2023/06/26 12:20:19;;;;;;;3.10;1.30;;;27.30;99.90;;;;;;5042179;28;20539;-81
2023/06/26 12:22:47;;;;;;;3.13;1.77;;;27.60;99.90;;;;;;5047138;28;20486;-83
2023/06/26 12:25:16;;;;;;;4.50;1.50;;;27.60;99.90;;;;;;5035653;28;20453;-82
2023/06/26 12:27:46;;;;;;;6.40;1.70;;;27.30;99.90;;;;;;5038957;28;20453;-82
2023/06/26 12:30:14;;;;;;;3.00;1.47;;;27.30;99.90;;;;;;5046752;28;20476;-83
2023/06/26 12:32:40;;;;;;;5.83;1.50;;;27.30;99.90;;;;;;5048234;28;20449;-82
2023/06/26 12:35:10;;;;;;;3.40;1.23;;;27.30;99.90;;;;;;5050008;28;20458;-79
2023/06/26 12:37:40;;;;;;;2.97;1.13;;;27.10;99.90;;;;;;5039561;28;20494;-82
2023/06/26 12:40:19;;;;;;;4.17;1.63;;;27.30;99.90;;;;;;5039150;28;20465;-82
2023/06/26 12:42:46;;;;;;;2.27;1.30;;;27.20;99.90;;;;;;5041320;28;20477;-81
2023/06/26 12:45:15;;;;;;;3.00;1.17;;;27.20;99.90;;;;;;5035557;28;20457;-84
2023/06/26 12:47:42;;;;;;;4.50;1.70;;;27.60;99.90;;;;;;5040732;28;20520;-84
2023/06/26 12:50:09;;;;;;;4.67;1.20;;;28.10;99.90;;;;;;5055918;28;20458;-81
2023/06/26 12:52:36;;;;;;;2.77;1.20;;;27.90;99.90;;;;;;5046909;28;20840;-81